createdAt,value
2019-03-08T00:00:54.670Z,7.30
2019-03-08T00:03:25.050Z,7.30
2019-03-08T00:05:57.844Z,7.20
2019-03-08T00:08:29.912Z,7.20
2019-03-08T00:11:03.147Z,7.20
2019-03-08T00:13:34.012Z,7.30
2019-03-08T00:16:04.712Z,7.30
2019-03-08T00:18:36.242Z,7.40
2019-03-08T00:21:08.667Z,7.40
2019-03-08T00:23:38.861Z,7.40
2019-03-08T00:26:10.310Z,7.50
2019-03-08T00:28:40.351Z,7.40
2019-03-08T00:31:10.336Z,7.50
2019-03-08T00:33:40.810Z,7.50
2019-03-08T00:36:14.986Z,7.50
2019-03-08T00:38:46.124Z,7.60
2019-03-08T00:41:16.448Z,7.70
2019-03-08T00:46:30.862Z,7.70
2019-03-08T00:49:01.546Z,7.80
2019-03-08T00:51:33.390Z,7.80
2019-03-08T00:54:03.413Z,7.80
2019-03-08T00:56:33.555Z,7.90
2019-03-08T00:59:04.134Z,7.90
2019-03-08T01:01:34.294Z,7.90
2019-03-08T01:04:07.416Z,7.90
2019-03-08T01:06:38.276Z,7.90
2019-03-08T01:09:09.271Z,8.00
2019-03-08T01:11:40.784Z,8.00
2019-03-08T01:14:12.081Z,8.00
2019-03-08T01:16:45.945Z,7.90
2019-03-08T01:19:16.651Z,7.90
2019-03-08T01:21:48.467Z,7.90
2019-03-08T01:24:38.607Z,7.90
2019-03-08T01:27:12.695Z,7.80
2019-03-08T01:29:43.815Z,7.80
2019-03-08T01:32:14.474Z,7.70
2019-03-08T01:34:48.373Z,7.60
2019-03-08T01:37:20.505Z,7.60
2019-03-08T01:39:52.721Z,7.60
2019-03-08T01:42:26.182Z,7.50
2019-03-08T01:45:01.383Z,7.50
2019-03-08T01:47:33.041Z,7.50
2019-03-08T01:50:05.248Z,7.50
2019-03-08T01:55:12.477Z,7.40
2019-03-08T01:57:42.803Z,7.30
2019-03-08T02:00:16.792Z,7.20
2019-03-08T02:02:48.148Z,7.20
2019-03-08T02:05:18.610Z,7.10
2019-03-08T02:07:50.675Z,7.10
2019-03-08T02:10:25.153Z,7.10
2019-03-08T02:12:55.541Z,7.00
2019-03-08T02:15:25.906Z,7.00
2019-03-08T02:17:56.045Z,6.90
2019-03-08T02:20:26.402Z,6.80
2019-03-08T02:22:58.857Z,6.90
2019-03-08T02:25:29.810Z,6.80
2019-03-08T02:28:02.226Z,6.80
2019-03-08T02:30:36.417Z,6.70
2019-03-08T02:33:06.460Z,6.70
2019-03-08T02:35:36.477Z,6.60
2019-03-08T02:38:06.540Z,6.60
2019-03-08T02:40:38.757Z,6.60
2019-03-08T02:43:26.701Z,6.60
2019-03-08T02:45:56.673Z,6.60
2019-03-08T02:48:31.265Z,6.60
2019-03-08T02:51:01.981Z,6.60
2019-03-08T02:53:34.448Z,6.60
2019-03-08T02:56:06.639Z,6.60
2019-03-08T02:58:41.446Z,6.60
2019-03-08T03:01:16.372Z,6.60
2019-03-08T03:03:48.666Z,6.60
2019-03-08T03:06:20.705Z,6.70
2019-03-08T03:08:53.623Z,6.60
2019-03-08T03:11:23.665Z,6.70
2019-03-08T03:13:57.004Z,6.70
2019-03-08T03:16:27.899Z,6.70
2019-03-08T03:18:57.970Z,6.70
2019-03-08T03:21:28.097Z,6.70
2019-03-08T03:24:05.180Z,6.70
2019-03-08T03:26:36.957Z,6.60
2019-03-08T03:29:07.937Z,6.60
2019-03-08T03:31:41.892Z,6.60
2019-03-08T03:34:12.425Z,6.60
2019-03-08T03:36:42.596Z,6.60
2019-03-08T03:39:13.260Z,6.60
2019-03-08T03:41:45.233Z,6.60
2019-03-08T03:44:17.507Z,6.60
2019-03-08T03:46:47.595Z,6.60
2019-03-08T03:49:17.819Z,6.50
2019-03-08T03:51:48.296Z,6.60
2019-03-08T03:54:19.994Z,6.50
2019-03-08T03:56:50.065Z,6.50
2019-03-08T03:59:20.134Z,6.50
2019-03-08T04:01:52.233Z,6.40
2019-03-08T04:04:24.301Z,6.40
2019-03-08T04:06:56.993Z,6.30
2019-03-08T04:09:29.488Z,6.30
2019-03-08T04:11:59.573Z,6.30
2019-03-08T04:14:29.546Z,6.20
2019-03-08T04:16:59.870Z,6.20
2019-03-08T04:19:30.680Z,6.20
2019-03-08T04:22:00.772Z,6.10
2019-03-08T04:24:30.852Z,6.10
2019-03-08T04:27:01.309Z,6.20
2019-03-08T04:29:33.173Z,6.20
2019-03-08T04:32:17.645Z,6.20
2019-03-08T04:34:50.510Z,6.30
2019-03-08T04:37:24.287Z,6.30
2019-03-08T04:39:58.121Z,6.30
2019-03-08T04:42:28.462Z,6.40
2019-03-08T04:44:58.513Z,6.30
2019-03-08T04:47:28.752Z,6.40
2019-03-08T04:50:00.108Z,6.40
2019-03-08T04:52:30.241Z,6.40
2019-03-08T04:55:00.384Z,6.50
2019-03-08T04:57:30.454Z,6.50
2019-03-08T05:00:00.521Z,6.60
2019-03-08T05:02:33.326Z,6.60
2019-03-08T05:05:06.423Z,6.60
2019-03-08T05:07:36.201Z,6.50
2019-03-08T05:10:08.768Z,5.90
2019-03-08T05:12:40.309Z,5.70
2019-03-08T05:15:11.764Z,5.70
2019-03-08T05:17:44.284Z,5.60
2019-03-08T05:20:16.606Z,5.60
2019-03-08T05:22:53.176Z,5.50
2019-03-08T05:25:24.119Z,5.60
2019-03-08T05:27:56.947Z,5.60
2019-03-08T05:30:28.577Z,5.60
2019-03-08T05:33:02.359Z,5.70
2019-03-08T05:35:35.583Z,5.80
2019-03-08T05:38:05.950Z,5.80
2019-03-08T05:40:46.362Z,5.80
2019-03-08T05:43:16.453Z,5.80
2019-03-08T05:45:46.555Z,5.80
2019-03-08T05:48:17.188Z,5.90
2019-03-08T05:50:47.914Z,5.90
2019-03-08T05:53:18.002Z,5.90
2019-03-08T05:55:48.346Z,5.90
2019-03-08T05:58:53.357Z,5.90
2019-03-08T06:01:26.525Z,5.90
2019-03-08T06:04:01.830Z,5.90
2019-03-08T06:06:32.049Z,5.90
2019-03-08T06:09:05.466Z,5.80
2019-03-08T06:11:35.729Z,5.80
2019-03-08T06:14:08.161Z,5.80
2019-03-08T06:16:44.393Z,5.70
2019-03-08T06:19:14.809Z,5.60
2019-03-08T06:21:45.109Z,5.60
2019-03-08T06:24:16.532Z,5.60
2019-03-08T06:26:48.545Z,5.50
2019-03-08T06:29:19.742Z,5.60
2019-03-08T06:32:01.682Z,5.60
2019-03-08T06:34:33.817Z,5.60
2019-03-08T06:37:09.288Z,5.70
2019-03-08T06:39:40.541Z,5.80
2019-03-08T06:42:12.164Z,5.80
2019-03-08T06:44:47.035Z,5.80
2019-03-08T06:47:21.763Z,5.80
2019-03-08T06:50:02.864Z,5.80
2019-03-08T06:52:34.276Z,5.70
2019-03-08T06:55:09.170Z,5.70
2019-03-08T06:57:40.137Z,5.70
2019-03-08T07:00:29.835Z,5.80
2019-03-08T07:03:04.108Z,5.90
2019-03-08T07:05:34.611Z,6.10
2019-03-08T07:08:07.181Z,6.20
2019-03-08T07:10:40.146Z,6.40
2019-03-08T07:13:16.051Z,6.60
2019-03-08T07:15:46.718Z,6.60
2019-03-08T07:18:17.328Z,6.60
2019-03-08T07:21:01.663Z,6.50
2019-03-08T07:23:38.947Z,6.30
2019-03-08T07:26:41.886Z,6.40
2019-03-08T07:29:32.753Z,6.40
2019-03-08T07:32:14.081Z,6.50
2019-03-08T07:35:18.146Z,6.50
2019-03-08T07:38:11.655Z,6.50
2019-03-08T07:41:09.900Z,6.50
2019-03-08T07:44:00.306Z,6.60
2019-03-08T07:46:52.816Z,6.80
2019-03-08T07:49:56.793Z,7.10
2019-03-08T07:52:46.697Z,7.20
2019-03-08T07:55:26.072Z,7.30
2019-03-08T07:58:13.166Z,7.30
2019-03-08T08:00:52.931Z,7.50
2019-03-08T08:03:51.458Z,7.60
2019-03-08T08:06:36.686Z,7.70
2019-03-08T08:09:29.507Z,7.60
2019-03-08T08:12:20.247Z,7.60
2019-03-08T08:15:17.088Z,7.60
2019-03-08T08:18:23.821Z,7.70
2019-03-08T08:21:21.070Z,7.90
2019-03-08T08:24:05.543Z,8.00
2019-03-08T08:26:57.658Z,8.20
2019-03-08T08:29:44.376Z,8.20
2019-03-08T08:32:39.441Z,8.30
2019-03-08T08:35:32.838Z,8.10
2019-03-08T08:38:35.771Z,7.80
2019-03-08T08:41:21.871Z,8.00
2019-03-08T08:44:12.422Z,8.30
2019-03-08T08:47:05.408Z,8.10
2019-03-08T08:52:56.408Z,8.70
2019-03-08T08:55:51.274Z,8.80
2019-03-08T08:58:42.594Z,8.90
2019-03-08T09:01:30.218Z,8.30
2019-03-08T09:04:34.175Z,8.40
2019-03-08T09:07:27.574Z,8.40
2019-03-08T09:10:10.005Z,8.50
2019-03-08T09:12:56.026Z,8.60
2019-03-08T09:15:34.374Z,8.30
2019-03-08T09:18:28.145Z,8.20
2019-03-08T09:21:18.101Z,8.30
2019-03-08T09:24:08.019Z,8.60
2019-03-08T09:27:01.925Z,8.60
2019-03-08T09:29:49.912Z,8.50
2019-03-08T09:32:43.532Z,8.30
2019-03-08T09:35:39.415Z,7.90
2019-03-08T09:38:30.376Z,7.80
2019-03-08T09:41:18.331Z,8.10
2019-03-08T09:44:24.873Z,8.50
2019-03-08T09:47:24.893Z,8.80
2019-03-08T09:50:12.848Z,8.90
2019-03-08T09:52:55.322Z,8.70
2019-03-08T09:55:38.154Z,8.80
2019-03-08T09:58:30.667Z,8.70
2019-03-08T10:01:26.250Z,8.50
2019-03-08T10:04:11.305Z,8.40
2019-03-08T10:07:05.183Z,8.00
2019-03-08T10:09:57.740Z,7.70
2019-03-08T10:12:57.048Z,7.60
2019-03-08T10:15:41.468Z,7.50
2019-03-08T10:18:27.155Z,7.30
2019-03-08T10:21:16.379Z,7.40
2019-03-08T10:24:06.715Z,7.50
2019-03-08T10:26:58.503Z,7.60
2019-03-08T10:29:37.084Z,7.70
2019-03-08T10:32:37.243Z,8.10
2019-03-08T10:35:23.815Z,8.30
2019-03-08T10:38:22.091Z,8.30
2019-03-08T10:41:05.074Z,8.50
2019-03-08T10:43:41.752Z,8.60
2019-03-08T10:46:31.977Z,8.50
2019-03-08T10:49:10.603Z,8.50
2019-03-08T10:52:01.224Z,8.60
2019-03-08T10:54:43.220Z,8.70
2019-03-08T10:57:32.711Z,8.90
2019-03-08T11:00:20.285Z,9.10
2019-03-08T11:03:12.169Z,9.30
2019-03-08T11:05:54.702Z,9.50
2019-03-08T11:08:50.806Z,9.80
2019-03-08T11:11:41.696Z,9.90
2019-03-08T11:14:33.939Z,9.90
2019-03-08T11:17:17.026Z,9.90
2019-03-08T11:20:20.109Z,9.90
2019-03-08T11:23:00.026Z,9.70
2019-03-08T11:25:49.089Z,10.00
2019-03-08T11:29:01.809Z,9.90
2019-03-08T11:31:52.142Z,9.80
2019-03-08T11:34:34.664Z,9.60
2019-03-08T11:37:12.742Z,9.30
2019-03-08T11:40:17.109Z,9.20
2019-03-08T11:43:07.766Z,9.30
2019-03-08T11:49:56.372Z,9.50
2019-03-08T11:54:05.673Z,9.10
2019-03-08T11:57:02.040Z,9.10
2019-03-08T12:00:02.878Z,9.50
2019-03-08T12:02:52.399Z,9.90
2019-03-08T12:05:35.467Z,10.30
2019-03-08T12:08:22.046Z,10.00
2019-03-08T12:11:25.142Z,10.10
2019-03-08T12:14:24.966Z,10.30
2019-03-08T12:17:14.178Z,10.60
2019-03-08T12:20:09.460Z,10.80
2019-03-08T12:23:01.826Z,10.80
2019-03-08T12:26:02.337Z,10.70
2019-03-08T12:28:50.735Z,10.90
2019-03-08T12:31:39.804Z,10.80
2019-03-08T12:34:32.670Z,10.80
2019-03-08T12:37:21.813Z,10.80
2019-03-08T12:40:09.915Z,10.60
2019-03-08T12:43:07.552Z,10.70
2019-03-08T12:45:52.363Z,10.30
2019-03-08T12:48:57.110Z,10.30
2019-03-08T12:51:54.747Z,10.40
2019-03-08T12:54:34.028Z,10.30
2019-03-08T12:57:13.312Z,10.10
2019-03-08T13:00:12.759Z,10.10
2019-03-08T13:06:28.085Z,10.20
2019-03-08T13:09:22.551Z,10.20
2019-03-08T13:11:55.799Z,9.90
2019-03-08T13:14:33.678Z,9.70
2019-03-08T13:17:05.899Z,9.60
2019-03-08T13:19:37.102Z,9.70
2019-03-08T13:22:10.417Z,9.90
2019-03-08T13:24:42.061Z,10.30
2019-03-08T13:27:37.631Z,10.50
2019-03-08T13:30:16.249Z,10.80
2019-03-08T13:32:51.449Z,10.80
2019-03-08T13:35:33.351Z,11.00
2019-03-08T13:42:10.197Z,10.60
2019-03-08T13:45:05.735Z,10.80
2019-03-08T13:47:42.340Z,11.00
2019-03-08T13:50:13.739Z,11.20
2019-03-08T13:52:45.357Z,11.30
2019-03-08T13:55:16.382Z,11.10
2019-03-08T13:57:47.519Z,11.10
2019-03-08T14:00:19.699Z,11.30
2019-03-08T14:02:50.017Z,12.00
2019-03-08T14:05:20.479Z,12.80
2019-03-08T14:07:50.708Z,13.50
2019-03-08T14:10:20.947Z,14.30
2019-03-08T14:12:54.176Z,14.20
2019-03-08T14:15:26.813Z,14.50
2019-03-08T14:17:57.518Z,14.90
2019-03-08T14:20:27.854Z,15.60
2019-03-08T14:22:58.094Z,14.90
2019-03-08T14:25:30.354Z,14.70
2019-03-08T14:28:00.602Z,15.30
2019-03-08T14:30:36.051Z,14.90
2019-03-08T14:33:06.369Z,15.10
2019-03-08T14:35:36.532Z,15.20
2019-03-08T14:38:08.315Z,14.80
2019-03-08T14:40:57.409Z,14.40
2019-03-08T14:43:39.468Z,14.50
2019-03-08T14:46:21.046Z,15.20
2019-03-08T14:48:52.609Z,16.00
2019-03-08T14:51:22.888Z,15.60
2019-03-08T14:53:54.206Z,15.40
2019-03-08T14:56:24.730Z,14.40
2019-03-08T14:58:56.540Z,13.90
2019-03-08T15:01:26.769Z,14.10
2019-03-08T15:03:57.805Z,14.20
2019-03-08T15:06:29.590Z,13.80
2019-03-08T15:09:02.107Z,14.10
2019-03-08T15:11:32.309Z,14.60
2019-03-08T15:14:03.664Z,14.90
2019-03-08T15:16:35.406Z,14.70
2019-03-08T15:19:05.943Z,14.70
2019-03-08T15:21:37.068Z,14.80
2019-03-08T15:24:08.993Z,14.00
2019-03-08T15:26:40.325Z,14.50
2019-03-08T15:29:13.495Z,14.70
2019-03-08T15:31:43.551Z,15.10
2019-03-08T15:34:14.659Z,15.30
2019-03-08T15:36:47.803Z,14.90
2019-03-08T15:39:20.129Z,15.20
2019-03-08T15:41:50.657Z,15.60
2019-03-08T15:44:24.526Z,15.10
2019-03-08T15:46:55.744Z,13.60
2019-03-08T15:49:26.657Z,12.70
2019-03-08T15:51:59.959Z,12.60
2019-03-08T15:54:28.916Z,12.90
2019-03-08T15:57:01.105Z,13.40
2019-03-08T15:59:34.079Z,13.30
2019-03-08T16:02:11.775Z,12.20
2019-03-08T16:04:45.921Z,11.60
2019-03-08T16:07:23.018Z,11.20
2019-03-08T16:09:53.068Z,11.00
2019-03-08T16:12:28.782Z,10.80
2019-03-08T16:14:59.439Z,10.50
2019-03-08T16:17:31.298Z,10.40
2019-03-08T16:20:02.862Z,10.40
2019-03-08T16:22:36.803Z,10.20
2019-03-08T16:25:08.737Z,10.10
2019-03-08T16:27:39.972Z,10.10
2019-03-08T16:30:23.666Z,10.10
2019-03-08T16:33:14.535Z,10.00
2019-03-08T16:35:52.042Z,9.90
2019-03-08T16:38:42.175Z,9.90
2019-03-08T16:41:33.541Z,9.80
2019-03-08T16:44:15.731Z,9.80
2019-03-08T16:46:56.360Z,9.70
2019-03-08T16:49:48.039Z,9.70
2019-03-08T16:52:34.641Z,9.60
2019-03-08T16:55:33.983Z,9.50
2019-03-08T16:58:19.916Z,9.50
2019-03-08T17:01:13.791Z,9.40
2019-03-08T17:03:56.606Z,9.30
2019-03-08T17:06:34.420Z,9.30
2019-03-08T17:09:14.037Z,9.20
2019-03-08T17:12:08.380Z,9.20
2019-03-08T17:14:54.179Z,9.20
2019-03-08T17:17:44.533Z,9.20
2019-03-08T17:20:24.117Z,9.20
2019-03-08T17:23:08.144Z,9.00
2019-03-08T17:25:51.309Z,8.90
2019-03-08T17:28:58.816Z,8.80
2019-03-08T17:31:51.264Z,8.80
2019-03-08T17:34:49.947Z,8.60
2019-03-08T17:37:28.856Z,8.50
2019-03-08T17:40:20.412Z,8.30
2019-03-08T17:43:17.223Z,8.20
2019-03-08T17:45:53.430Z,8.00
2019-03-08T17:48:48.515Z,7.70
2019-03-08T17:51:41.264Z,7.40
2019-03-08T17:54:40.028Z,7.30
2019-03-08T17:57:32.160Z,7.10
2019-03-08T18:00:27.602Z,7.00
2019-03-08T18:03:22.943Z,6.80
2019-03-08T18:06:30.585Z,6.80
2019-03-08T18:09:34.896Z,6.60
2019-03-08T18:12:24.215Z,6.50
2019-03-08T18:15:04.641Z,6.30
2019-03-08T18:18:11.906Z,6.20
2019-03-08T18:20:54.978Z,6.10
2019-03-08T18:23:49.620Z,6.00
2019-03-08T18:26:41.976Z,5.80
2019-03-08T18:29:29.706Z,5.60
2019-03-08T18:32:18.432Z,5.50
2019-03-08T18:35:16.869Z,5.50
2019-03-08T18:38:12.217Z,5.30
2019-03-08T18:40:50.920Z,5.10
2019-03-08T18:43:45.558Z,5.00
2019-03-08T18:46:40.200Z,5.00
2019-03-08T18:49:16.774Z,5.10
2019-03-08T18:52:02.875Z,5.10
2019-03-08T18:54:54.767Z,5.10
2019-03-08T18:57:43.773Z,5.10
2019-03-08T19:00:49.816Z,5.20
2019-03-08T19:03:39.050Z,5.40
2019-03-08T19:06:22.427Z,5.50
2019-03-08T19:09:14.308Z,5.50
2019-03-08T19:12:04.271Z,5.50
2019-03-08T19:14:53.177Z,5.40
2019-03-08T19:17:46.093Z,5.20
2019-03-08T19:20:38.798Z,5.30
2019-03-08T19:23:27.871Z,5.40
2019-03-08T19:26:19.500Z,5.30
2019-03-08T19:29:08.603Z,5.40
2019-03-08T19:31:57.720Z,5.20
2019-03-08T19:34:43.574Z,5.10
2019-03-08T19:37:29.681Z,5.10
2019-03-08T19:40:23.152Z,5.00
2019-03-08T19:43:05.251Z,5.10
2019-03-08T19:46:10.379Z,5.10
2019-03-08T19:49:05.081Z,5.00
2019-03-08T19:52:00.092Z,5.00
2019-03-08T19:55:07.722Z,5.00
2019-03-08T19:57:55.636Z,5.00
2019-03-08T20:00:39.947Z,5.00
2019-03-08T20:03:48.512Z,4.90
2019-03-08T20:06:31.487Z,5.00
2019-03-08T20:09:20.668Z,4.90
2019-03-08T20:12:20.661Z,4.90
2019-03-08T20:15:09.829Z,5.00
2019-03-08T20:17:52.891Z,5.10
2019-03-08T20:20:46.208Z,5.20
2019-03-08T20:23:27.218Z,5.30
2019-03-08T20:26:16.470Z,5.40
2019-03-08T20:29:04.284Z,5.40
2019-03-08T20:31:53.485Z,5.40
2019-03-08T20:34:45.761Z,5.40
2019-03-08T20:37:42.655Z,5.50
2019-03-08T20:40:32.214Z,5.50
2019-03-08T20:43:27.056Z,5.50
2019-03-08T20:46:11.867Z,5.50
2019-03-08T20:48:45.597Z,5.50
2019-03-08T20:51:17.671Z,5.50
2019-03-08T20:53:50.620Z,5.60
2019-03-08T20:56:21.018Z,5.70
2019-03-08T20:58:51.155Z,5.90
2019-03-08T21:01:21.798Z,5.90
2019-03-08T21:03:52.386Z,5.90
2019-03-08T21:06:25.245Z,5.90
2019-03-08T21:08:56.950Z,5.90
2019-03-08T21:11:28.702Z,6.00
2019-03-08T21:13:59.099Z,6.00
2019-03-08T21:16:31.150Z,6.00
2019-03-08T21:19:04.638Z,6.00
2019-03-08T21:21:36.864Z,6.00
2019-03-08T21:24:13.622Z,6.10
2019-03-08T21:26:47.539Z,6.10
2019-03-08T21:29:19.613Z,6.10
2019-03-08T21:31:52.676Z,5.90
2019-03-08T21:34:25.067Z,5.90
2019-03-08T21:37:04.970Z,5.90
2019-03-08T21:39:37.320Z,5.90
2019-03-08T21:42:07.953Z,5.90
2019-03-08T21:45:02.582Z,6.00
2019-03-08T21:47:35.452Z,6.00
2019-03-08T21:50:11.763Z,5.90
2019-03-08T21:52:43.992Z,5.90
2019-03-08T21:55:15.954Z,6.00
2019-03-08T21:57:46.161Z,6.10
2019-03-08T22:00:18.690Z,6.10
2019-03-08T22:02:55.959Z,6.20
2019-03-08T22:05:32.452Z,6.20
2019-03-08T22:08:16.654Z,6.30
2019-03-08T22:10:44.488Z,6.30
2019-03-08T22:13:15.156Z,6.30
2019-03-08T22:15:46.467Z,6.40
2019-03-08T22:18:17.886Z,6.40
2019-03-08T22:20:48.180Z,6.50
2019-03-08T22:23:18.926Z,6.60
2019-03-08T22:25:52.280Z,6.70
2019-03-08T22:28:22.620Z,6.70
2019-03-08T22:30:56.497Z,6.70
2019-03-08T22:33:27.867Z,6.80
2019-03-08T22:36:00.429Z,6.80
2019-03-08T22:38:32.229Z,6.90
2019-03-08T22:41:03.424Z,6.90
2019-03-08T22:43:34.467Z,6.90
2019-03-08T22:46:04.644Z,6.90
2019-03-08T22:48:37.131Z,7.00
2019-03-08T22:51:09.272Z,7.00
2019-03-08T22:53:42.259Z,7.00
2019-03-08T22:56:15.448Z,7.00
2019-03-08T22:58:46.972Z,7.00
2019-03-08T23:01:22.330Z,7.10
2019-03-08T23:03:54.786Z,7.20
2019-03-08T23:06:26.123Z,7.10
2019-03-08T23:08:57.007Z,7.10
2019-03-08T23:11:28.983Z,7.10
2019-03-08T23:14:00.781Z,7.20
2019-03-08T23:16:32.534Z,7.20
2019-03-08T23:19:05.979Z,7.20
2019-03-08T23:21:53.944Z,7.20
2019-03-08T23:24:25.266Z,7.20
2019-03-08T23:27:14.607Z,7.20
2019-03-08T23:29:58.767Z,7.10
2019-03-08T23:32:43.278Z,7.10
2019-03-08T23:35:18.763Z,6.90
2019-03-08T23:37:49.390Z,6.90
2019-03-08T23:40:19.898Z,6.80
2019-03-08T23:42:55.809Z,6.70
2019-03-08T23:45:30.926Z,6.60
2019-03-08T23:48:03.594Z,6.60
2019-03-08T23:50:35.721Z,6.60
2019-03-08T23:53:10.854Z,6.60
2019-03-08T23:55:41.014Z,6.50
2019-03-08T23:58:12.271Z,6.60
